Time;durP1;ratioP1;P1;durP2;ratioP2;P2;SDS_P1;SDS_P2;PMS_P1;PMS_P2;Temp;Humidity;BMP_temperature;BMP_pressure;BME280_temperature;BME280_humidity;BME280_pressure;Samples;Min_cycle;Max_cycle;Signal;HPM_P1;HPM_P2
2022/03/06 00:00:12;;;;;;;;;;;21.20;17.20;;;;;;5140231;27;19934;-53
2022/03/06 00:02:38;;;;;;;;;;;20.70;17.50;;;;;;5143396;27;19931;-55
2022/03/06 00:05:04;;;;;;;;;;;19.70;18.50;;;;;;5142832;27;20275;-52
2022/03/06 00:07:30;;;;;;;;;;;20.60;17.70;;;;;;5123375;27;19945;-57
2022/03/06 00:09:56;;;;;;;;;;;21.10;17.30;;;;;;5147700;27;20223;-53
2022/03/06 00:12:22;;;;;;;;;;;21.10;17.30;;;;;;5142053;27;19922;-54
2022/03/06 00:14:47;;;;;;;;;;;19.30;18.70;;;;;;5141805;27;20014;-52
2022/03/06 00:17:13;;;;;;;;;;;20.30;18.00;;;;;;5128947;27;19927;-50
2022/03/06 00:19:39;;;;;;;;;;;20.90;17.50;;;;;;5137803;27;19931;-49
2022/03/06 00:22:05;;;;;;;;;;;21.30;17.20;;;;;;5143432;27;19927;-57
2022/03/06 00:24:30;;;;;;;;;;;20.30;17.90;;;;;;5143917;27;20378;-54
2022/03/06 00:26:56;;;;;;;;;;;19.90;18.40;;;;;;5141735;27;19927;-54
2022/03/06 00:29:22;;;;;;;;;;;20.80;17.60;;;;;;5147255;27;19927;-49
2022/03/06 00:31:48;;;;;;;;;;;21.10;17.30;;;;;;5141466;27;19931;-51
2022/03/06 00:34:14;;;;;;;;;;;20.80;17.50;;;;;;5141548;27;20370;-51
2022/03/06 00:36:39;;;;;;;;;;;19.70;18.60;;;;;;5146826;27;19980;-55
2022/03/06 00:39:05;;;;;;;;;;;20.70;17.70;;;;;;5136538;27;20021;-55
2022/03/06 00:41:31;;;;;;;;;;;21.00;17.40;;;;;;5142088;27;20314;-56
2022/03/06 00:43:57;;;;;;;;;;;21.20;17.30;;;;;;5146465;27;19923;-50
2022/03/06 00:46:22;;;;;;;;;;;19.60;18.50;;;;;;5141337;27;19930;-50
2022/03/06 00:48:48;;;;;;;;;;;20.20;18.20;;;;;;5147088;27;19938;-52
2022/03/06 00:51:14;;;;;;;;;;;20.80;17.60;;;;;;5141255;27;19971;-52
2022/03/06 00:53:40;;;;;;;;;;;21.20;17.30;;;;;;5141357;27;19964;-51
2022/03/06 00:56:06;;;;;;;;;;;20.90;17.50;;;;;;5142677;27;20373;-53
2022/03/06 00:58:31;;;;;;;;;;;19.70;18.60;;;;;;5140142;27;19935;-50
2022/03/06 01:00:57;;;;;;;;;;;20.60;17.80;;;;;;5141385;27;19946;-51
2022/03/06 01:03:23;;;;;;;;;;;21.00;17.50;;;;;;5128337;27;19923;-51
2022/03/06 01:05:49;;;;;;;;;;;21.20;17.30;;;;;;5141142;27;20392;-51
2022/03/06 01:08:15;;;;;;;;;;;19.60;18.50;;;;;;5146627;27;19974;-51
2022/03/06 01:10:41;;;;;;;;;;;20.20;18.20;;;;;;5141003;27;19927;-52
2022/03/06 01:13:07;;;;;;;;;;;20.80;17.60;;;;;;5122814;27;19960;-51
2022/03/06 01:15:33;;;;;;;;;;;21.10;17.30;;;;;;5141906;27;20006;-51
2022/03/06 01:17:59;;;;;;;;;;;19.70;18.50;;;;;;5140519;27;19923;-49
2022/03/06 01:20:24;;;;;;;;;;;20.10;18.20;;;;;;5140957;27;20286;-53
2022/03/06 01:22:50;;;;;;;;;;;20.80;17.60;;;;;;5146677;27;20021;-51
2022/03/06 01:25:16;;;;;;;;;;;21.30;17.30;;;;;;5141007;27;20371;-50
2022/03/06 01:27:42;;;;;;;;;;;20.30;17.90;;;;;;5127856;27;20386;-47
2022/03/06 01:30:08;;;;;;;;;;;19.90;18.50;;;;;;5140719;27;19923;-47
2022/03/06 01:32:34;;;;;;;;;;;20.70;17.80;;;;;;5137543;27;19931;-49
2022/03/06 01:35:00;;;;;;;;;;;21.20;17.40;;;;;;5109133;27;20378;-48
2022/03/06 01:37:25;;;;;;;;;;;20.90;17.60;;;;;;5125436;27;19935;-49
2022/03/06 01:39:51;;;;;;;;;;;19.60;18.60;;;;;;5144337;27;20510;-47
2022/03/06 01:42:17;;;;;;;;;;;20.60;17.80;;;;;;5149903;27;19923;-51
2022/03/06 01:44:46;;;;;;;;;;;21.10;17.40;;;;;;5144263;27;19974;-51
2022/03/06 01:47:12;;;;;;;;;;;21.10;17.30;;;;;;5148446;27;20021;-53
2022/03/06 01:49:38;;;;;;;;;;;19.10;19.10;;;;;;5146184;27;19927;-47
2022/03/06 01:52:04;;;;;;;;;;;20.20;18.20;;;;;;5119610;27;19931;-43
2022/03/06 01:54:29;;;;;;;;;;;20.90;17.60;;;;;;5148727;27;19976;-50
2022/03/06 01:56:55;;;;;;;;;;;21.20;17.40;;;;;;5144011;27;19923;-47
2022/03/06 01:59:22;;;;;;;;;;;20.20;18.10;;;;;;5144229;27;19930;-44
2022/03/06 02:01:48;;;;;;;;;;;19.90;18.50;;;;;;5149396;27;19923;-51
2022/03/06 02:04:14;;;;;;;;;;;20.80;17.70;;;;;;5143883;27;19930;-47
2022/03/06 02:06:40;;;;;;;;;;;21.10;17.40;;;;;;5145014;27;19923;-55
2022/03/06 02:09:06;;;;;;;;;;;20.50;17.90;;;;;;5145603;27;20026;-51
2022/03/06 02:11:31;;;;;;;;;;;19.50;18.80;;;;;;5141752;27;20282;-46
2022/03/06 02:13:58;;;;;;;;;;;20.50;18.00;;;;;;5148944;27;19931;-50
2022/03/06 02:16:24;;;;;;;;;;;20.90;17.60;;;;;;5143591;27;19927;-49
2022/03/06 02:18:50;;;;;;;;;;;21.30;17.30;;;;;;5143825;27;19927;-50
2022/03/06 02:21:15;;;;;;;;;;;19.80;18.50;;;;;;5149220;27;19938;-47
2022/03/06 02:23:41;;;;;;;;;;;20.10;18.30;;;;;;5143647;27;19927;-49
2022/03/06 02:26:07;;;;;;;;;;;20.80;17.70;;;;;;5143391;27;19934;-50
2022/03/06 02:28:34;;;;;;;;;;;21.10;17.50;;;;;;5144820;27;19930;-50
2022/03/06 02:31:00;;;;;;;;;;;20.60;17.90;;;;;;5142486;27;20373;-46
2022/03/06 02:33:26;;;;;;;;;;;19.80;18.60;;;;;;5149084;27;19971;-50
2022/03/06 02:35:51;;;;;;;;;;;20.60;17.90;;;;;;5139529;27;19937;-52
2022/03/06 02:38:18;;;;;;;;;;;21.00;17.60;;;;;;5143393;27;20359;-49
2022/03/06 02:40:44;;;;;;;;;;;21.10;17.50;;;;;;5149132;27;19923;-50
2022/03/06 02:43:10;;;;;;;;;;;19.30;19.00;;;;;;5143356;27;19923;-50
2022/03/06 02:45:38;;;;;;;;;;;20.30;18.20;;;;;;5141596;27;20014;-49
2022/03/06 02:48:04;;;;;;;;;;;20.80;17.70;;;;;;5145149;27;20035;-51
2022/03/06 02:50:30;;;;;;;;;;;21.20;17.50;;;;;;5143640;27;20264;-48
2022/03/06 02:52:56;;;;;;;;;;;19.90;18.40;;;;;;5148707;27;19927;-47
2022/03/06 02:55:22;;;;;;;;;;;20.00;18.50;;;;;;5143329;27;20021;-49
2022/03/06 02:57:48;;;;;;;;;;;20.80;17.80;;;;;;5143133;27;19950;-49
2022/03/06 03:00:15;;;;;;;;;;;21.10;17.60;;;;;;5148839;27;19975;-52
2022/03/06 03:02:41;;;;;;;;;;;20.90;17.60;;;;;;5143239;27;19975;-49
2022/03/06 03:05:07;;;;;;;;;;;19.50;18.90;;;;;;5103261;27;20672;-47
2022/03/06 03:07:33;;;;;;;;;;;20.40;18.10;;;;;;5147535;27;19949;-51
2022/03/06 03:09:59;;;;;;;;;;;20.90;17.70;;;;;;5143001;27;19927;-50
2022/03/06 03:12:24;;;;;;;;;;;21.30;17.50;;;;;;5127694;27;19930;-54
2022/03/06 03:14:50;;;;;;;;;;;19.80;18.50;;;;;;5145773;27;19931;-50
2022/03/06 03:17:16;;;;;;;;;;;20.10;18.50;;;;;;5142989;27;19946;-48
2022/03/06 03:19:42;;;;;;;;;;;20.80;17.90;;;;;;5148331;27;19927;-49
2022/03/06 03:22:08;;;;;;;;;;;21.10;17.60;;;;;;5142538;27;20437;-51
2022/03/06 03:24:33;;;;;;;;;;;20.80;17.80;;;;;;5137893;27;19927;-47
2022/03/06 03:26:59;;;;;;;;;;;19.50;19.10;;;;;;5147662;27;20263;-52
2022/03/06 03:29:25;;;;;;;;;;;20.50;18.20;;;;;;5124184;27;19930;-52
2022/03/06 03:31:51;;;;;;;;;;;21.00;17.80;;;;;;5143743;27;19945;-55
2022/03/06 03:34:16;;;;;;;;;;;21.20;17.60;;;;;;5147362;27;20355;-56
2022/03/06 03:36:43;;;;;;;;;;;19.40;19.00;;;;;;5142552;27;19923;-49
2022/03/06 03:39:09;;;;;;;;;;;20.00;18.60;;;;;;5147888;27;19924;-49
2022/03/06 03:41:34;;;;;;;;;;;20.80;18.00;;;;;;5138770;27;19935;-48
2022/03/06 03:44:01;;;;;;;;;;;21.00;17.70;;;;;;5141129;27;19923;-52
2022/03/06 03:46:26;;;;;;;;;;;21.00;17.70;;;;;;5147654;27;20054;-53
2022/03/06 03:48:52;;;;;;;;;;;19.50;19.10;;;;;;5142151;27;19996;-53
2022/03/06 03:51:18;;;;;;;;;;;20.30;18.30;;;;;;5142192;27;20294;-50
2022/03/06 03:53:44;;;;;;;;;;;20.90;17.90;;;;;;5147658;27;20335;-52
2022/03/06 03:56:10;;;;;;;;;;;21.20;17.60;;;;;;5142361;27;19927;-53
2022/03/06 03:58:36;;;;;;;;;;;19.90;18.70;;;;;;5147265;27;19934;-52
2022/03/06 04:01:02;;;;;;;;;;;19.90;18.70;;;;;;5136861;27;19923;-52
2022/03/06 04:03:27;;;;;;;;;;;20.70;18.10;;;;;;5141519;27;19977;-52
2022/03/06 04:05:53;;;;;;;;;;;21.10;17.70;;;;;;5147751;27;19924;-50
2022/03/06 04:08:19;;;;;;;;;;;21.00;17.70;;;;;;5142302;27;19924;-49
2022/03/06 04:10:45;;;;;;;;;;;19.50;19.10;;;;;;5141926;27;20162;-46
2022/03/06 04:13:11;;;;;;;;;;;20.40;18.30;;;;;;5147324;27;19937;-51
2022/03/06 04:15:36;;;;;;;;;;;20.90;17.80;;;;;;5141995;27;19931;-49
2022/03/06 04:18:02;;;;;;;;;;;21.30;17.60;;;;;;5144859;27;19962;-51
2022/03/06 04:20:28;;;;;;;;;;;20.40;18.10;;;;;;5139877;27;19927;-51
2022/03/06 04:22:54;;;;;;;;;;;19.60;19.10;;;;;;5141652;27;20327;-47
2022/03/06 04:25:20;;;;;;;;;;;20.60;18.20;;;;;;5147275;27;19927;-50
2022/03/06 04:27:46;;;;;;;;;;;21.00;17.90;;;;;;5141661;27;20362;-48
2022/03/06 04:30:12;;;;;;;;;;;21.30;17.60;;;;;;5141891;27;20007;-51
2022/03/06 04:32:37;;;;;;;;;;;20.10;18.50;;;;;;5147181;27;19957;-48
2022/03/06 04:35:04;;;;;;;;;;;19.80;19.00;;;;;;5142081;27;20019;-50
2022/03/06 04:37:30;;;;;;;;;;;20.60;18.10;;;;;;5142692;27;20014;-55
2022/03/06 04:39:55;;;;;;;;;;;21.10;17.80;;;;;;5141339;27;19930;-53
2022/03/06 04:42:21;;;;;;;;;;;21.20;17.70;;;;;;5141845;27;19953;-47
2022/03/06 04:44:47;;;;;;;;;;;19.40;19.20;;;;;;5146915;27;19949;-49
2022/03/06 04:47:13;;;;;;;;;;;20.20;18.50;;;;;;5141575;27;19923;-54
2022/03/06 04:49:39;;;;;;;;;;;20.80;18.00;;;;;;5141577;27;19926;-51
2022/03/06 04:52:05;;;;;;;;;;;21.20;17.70;;;;;;5146906;27;19931;-48
2022/03/06 04:54:31;;;;;;;;;;;20.80;18.00;;;;;;5141475;27;19931;-50
2022/03/06 04:56:56;;;;;;;;;;;19.40;19.30;;;;;;5139707;27;20484;-54
2022/03/06 04:59:22;;;;;;;;;;;20.50;18.40;;;;;;5143945;27;19930;-49
2022/03/06 05:01:48;;;;;;;;;;;20.90;18.00;;;;;;5141293;27;19923;-52
2022/03/06 05:04:14;;;;;;;;;;;21.20;17.70;;;;;;5146651;27;20370;-49
2022/03/06 05:06:39;;;;;;;;;;;20.50;18.20;;;;;;5141294;27;20339;-47
2022/03/06 05:09:05;;;;;;;;;;;19.80;19.00;;;;;;5141446;27;19923;-49
2022/03/06 05:11:33;;;;;;;;;;;20.60;18.30;;;;;;5148643;27;19935;-54
2022/03/06 05:13:58;;;;;;;;;;;21.00;17.90;;;;;;5141081;27;19938;-53
2022/03/06 05:16:24;;;;;;;;;;;21.30;17.70;;;;;;5144339;27;19930;-53
2022/03/06 05:18:50;;;;;;;;;;;19.40;19.10;;;;;;5149935;27;20059;-49
2022/03/06 05:21:16;;;;;;;;;;;20.20;18.60;;;;;;5144619;27;19969;-55
2022/03/06 05:23:41;;;;;;;;;;;20.80;18.10;;;;;;5150360;27;20438;-54
2022/03/06 05:26:07;;;;;;;;;;;21.20;17.80;;;;;;5144636;27;19930;-51
2022/03/06 05:28:33;;;;;;;;;;;21.00;17.80;;;;;;5144813;27;21487;-48
2022/03/06 05:30:59;;;;;;;;;;;19.60;19.10;;;;;;5131473;27;19927;-49
2022/03/06 05:33:24;;;;;;;;;;;20.40;18.50;;;;;;5140715;27;19923;-51
2022/03/06 05:35:50;;;;;;;;;;;20.90;18.00;;;;;;5143655;27;19923;-50
2022/03/06 05:38:16;;;;;;;;;;;21.30;17.70;;;;;;5149784;27;19923;-49
2022/03/06 05:40:42;;;;;;;;;;;20.00;18.70;;;;;;5144580;27;20395;-46
2022/03/06 05:43:08;;;;;;;;;;;19.70;19.20;;;;;;5149628;27;20412;-47
2022/03/06 05:45:33;;;;;;;;;;;20.60;18.30;;;;;;5144375;27;19967;-51
2022/03/06 05:47:59;;;;;;;;;;;21.00;18.00;;;;;;5107486;27;20405;-51
2022/03/06 05:50:25;;;;;;;;;;;21.30;17.80;;;;;;5147383;27;19934;-50
2022/03/06 05:52:51;;;;;;;;;;;19.80;18.90;;;;;;5141803;27;19952;-49
2022/03/06 05:55:17;;;;;;;;;;;20.10;18.90;;;;;;5144018;27;19946;-54
2022/03/06 05:57:42;;;;;;;;;;;20.80;18.20;;;;;;5149591;27;19976;-52
2022/03/06 06:00:08;;;;;;;;;;;21.20;17.90;;;;;;5144080;27;19923;-54
2022/03/06 06:02:37;;;;;;;;;;;20.90;18.10;;;;;;5149399;27;20376;-50
2022/03/06 06:05:04;;;;;;;;;;;19.60;19.30;;;;;;5125725;27;19923;-51
2022/03/06 06:07:29;;;;;;;;;;;20.50;18.40;;;;;;5125901;27;19929;-49
2022/03/06 06:09:55;;;;;;;;;;;21.00;18.10;;;;;;5145242;27;19927;-48
2022/03/06 06:12:21;;;;;;;;;;;21.20;17.90;;;;;;5143288;27;19923;-47
2022/03/06 06:14:47;;;;;;;;;;;20.10;18.70;;;;;;5143986;27;19974;-49
2022/03/06 06:17:13;;;;;;;;;;;19.80;19.10;;;;;;5149358;27;19923;-53
2022/03/06 06:19:38;;;;;;;;;;;20.60;18.40;;;;;;5143839;27;19929;-50
2022/03/06 06:22:04;;;;;;;;;;;21.00;18.10;;;;;;5147353;27;19929;-55
2022/03/06 06:24:30;;;;;;;;;;;21.30;17.90;;;;;;5144696;27;19927;-51
2022/03/06 06:26:56;;;;;;;;;;;20.50;18.40;;;;;;5143522;27;19927;-50
2022/03/06 06:29:23;;;;;;;;;;;19.80;19.30;;;;;;5144509;27;20017;-50
2022/03/06 06:31:49;;;;;;;;;;;20.60;18.50;;;;;;5124952;27;19931;-52
2022/03/06 06:34:15;;;;;;;;;;;21.00;18.20;;;;;;5143470;27;19923;-50
2022/03/06 06:36:41;;;;;;;;;;;21.30;17.90;;;;;;5130819;27;19931;-51
2022/03/06 06:39:09;;;;;;;;;;;19.80;19.10;;;;;;5125029;27;19966;-52
2022/03/06 06:41:38;;;;;;;;;;;20.00;19.00;;;;;;5143867;27;20010;-57
2022/03/06 06:44:04;;;;;;;;;;;20.80;18.40;;;;;;5148981;27;19927;-50
2022/03/06 06:46:30;;;;;;;;;;;21.10;18.10;;;;;;5139804;27;19938;-51
2022/03/06 06:48:56;;;;;;;;;;;21.30;18.00;;;;;;5147540;27;20398;-46
2022/03/06 06:51:21;;;;;;;;;;;19.30;19.60;;;;;;5123214;27;19923;-48
2022/03/06 06:53:47;;;;;;;;;;;20.10;19.00;;;;;;5143202;27;19923;-50
2022/03/06 06:56:13;;;;;;;;;;;20.70;18.40;;;;;;5148574;27;19923;-50
2022/03/06 06:58:39;;;;;;;;;;;21.10;18.10;;;;;;5142949;27;19948;-47
2022/03/06 07:01:04;;;;;;;;;;;20.70;18.40;;;;;;5143053;27;19949;-50
2022/03/06 07:03:30;;;;;;;;;;;19.80;19.50;;;;;;5148258;27;19928;-48
2022/03/06 07:05:57;;;;;;;;;;;20.70;18.60;;;;;;5138922;27;19948;-52
2022/03/06 07:08:23;;;;;;;;;;;21.00;18.30;;;;;;5147652;27;19949;-50
2022/03/06 07:10:49;;;;;;;;;;;21.10;18.20;;;;;;5124657;27;19923;-48
2022/03/06 07:13:14;;;;;;;;;;;19.30;19.90;;;;;;5124445;27;19962;-51
2022/03/06 07:15:40;;;;;;;;;;;20.30;19.10;;;;;;5148480;27;19930;-49
2022/03/06 07:18:06;;;;;;;;;;;20.80;18.60;;;;;;5142940;27;20397;-50
2022/03/06 07:20:32;;;;;;;;;;;21.20;18.30;;;;;;5142786;27;20025;-49
2022/03/06 07:22:58;;;;;;;;;;;20.80;18.60;;;;;;5145764;27;20390;-56
2022/03/06 07:25:23;;;;;;;;;;;19.80;19.60;;;;;;5140248;27;19930;-47
2022/03/06 07:27:49;;;;;;;;;;;20.70;18.80;;;;;;5147910;27;19923;-50
2022/03/06 07:30:15;;;;;;;;;;;21.10;18.40;;;;;;5142477;27;19931;-52
2022/03/06 07:32:41;;;;;;;;;;;21.10;18.40;;;;;;5142648;27;19930;-49
2022/03/06 07:35:07;;;;;;;;;;;19.20;20.10;;;;;;5147868;27;19923;-51
2022/03/06 07:37:33;;;;;;;;;;;20.30;19.20;;;;;;5142362;27;20376;-49
2022/03/06 07:39:59;;;;;;;;;;;20.90;18.70;;;;;;5142393;27;19923;-48
2022/03/06 07:42:24;;;;;;;;;;;21.20;18.40;;;;;;5144129;27;19944;-51
2022/03/06 07:44:50;;;;;;;;;;;20.60;18.80;;;;;;5141548;27;19923;-49
2022/03/06 07:47:16;;;;;;;;;;;19.90;19.70;;;;;;5146067;27;19931;-57
2022/03/06 07:49:42;;;;;;;;;;;20.80;18.90;;;;;;5144084;27;19927;-51
2022/03/06 07:52:07;;;;;;;;;;;21.10;18.60;;;;;;5142201;27;20539;-52
2022/03/06 07:54:33;;;;;;;;;;;21.10;18.50;;;;;;5147890;27;19927;-50
2022/03/06 07:56:59;;;;;;;;;;;19.50;20.10;;;;;;5142104;27;19937;-50
2022/03/06 07:59:25;;;;;;;;;;;20.40;19.20;;;;;;5142508;27;19972;-52
2022/03/06 08:01:52;;;;;;;;;;;20.90;18.70;;;;;;5142574;27;19925;-48
2022/03/06 08:04:18;;;;;;;;;;;21.30;18.40;;;;;;5142474;27;19937;-49
2022/03/06 08:06:44;;;;;;;;;;;20.50;19.20;;;;;;5143520;27;19936;-56
2022/03/06 08:09:10;;;;;;;;;;;19.40;20.40;;;;;;5146842;27;20084;-55
2022/03/06 08:11:35;;;;;;;;;;;20.50;19.30;;;;;;5141725;27;19924;-50
2022/03/06 08:14:01;;;;;;;;;;;21.00;18.90;;;;;;5147387;27;20312;-49
2022/03/06 08:16:27;;;;;;;;;;;21.30;18.60;;;;;;5142525;27;19931;-47
2022/03/06 08:18:53;;;;;;;;;;;20.00;19.60;;;;;;5138974;27;20362;-49
2022/03/06 08:21:19;;;;;;;;;;;20.10;19.80;;;;;;5145612;27;21970;-43
2022/03/06 08:23:44;;;;;;;;;;;20.80;19.10;;;;;;5121785;27;19924;-48
2022/03/06 08:26:10;;;;;;;;;;;21.20;18.70;;;;;;5142079;27;20327;-47
2022/03/06 08:28:36;;;;;;;;;;;20.10;19.60;;;;;;5147415;27;19923;-44
2022/03/06 08:31:02;;;;;;;;;;;20.00;19.90;;;;;;5121948;27;19997;-46
2022/03/06 08:33:27;;;;;;;;;;;20.80;19.20;;;;;;5147350;27;19934;-45
2022/03/06 08:35:53;;;;;;;;;;;21.20;18.80;;;;;;5141725;27;19989;-45
2022/03/06 08:38:19;;;;;;;;;;;20.10;19.60;;;;;;5137782;27;19923;-45
2022/03/06 08:40:45;;;;;;;;;;;19.90;20.00;;;;;;5146397;27;19930;-45
2022/03/06 08:43:10;;;;;;;;;;;20.80;19.30;;;;;;5120785;27;19976;-47
2022/03/06 08:45:37;;;;;;;;;;;21.10;18.90;;;;;;5143345;27;19931;-46
2022/03/06 08:48:03;;;;;;;;;;;19.90;19.80;;;;;;5153803;27;20343;-45
2022/03/06 08:50:29;;;;;;;;;;;19.90;20.00;;;;;;5148586;27;19945;-48
2022/03/06 08:52:54;;;;;;;;;;;20.70;19.30;;;;;;5153722;27;19923;-47
2022/03/06 08:55:20;;;;;;;;;;;21.10;18.90;;;;;;5147524;27;19927;-49
2022/03/06 08:57:46;;;;;;;;;;;20.50;19.40;;;;;;5144396;27;19965;-45
2022/03/06 09:00:12;;;;;;;;;;;19.50;20.40;;;;;;5153485;27;19931;-43
2022/03/06 09:02:38;;;;;;;;;;;20.40;19.40;;;;;;5148002;27;19977;-45
2022/03/06 09:05:03;;;;;;;;;;;21.00;19.00;;;;;;5148011;27;19952;-46
2022/03/06 09:07:29;;;;;;;;;;;21.30;18.70;;;;;;5153470;27;19923;-48
2022/03/06 09:09:55;;;;;;;;;;;19.30;20.40;;;;;;5147967;27;19923;-46
2022/03/06 09:12:22;;;;;;;;;;;20.20;19.80;;;;;;5153671;27;19931;-45
2022/03/06 09:14:48;;;;;;;;;;;20.90;19.10;;;;;;5144553;27;20021;-45
2022/03/06 09:17:13;;;;;;;;;;;21.30;18.80;;;;;;5146782;27;20279;-51
2022/03/06 09:19:40;;;;;;;;;;;19.80;19.80;;;;;;5153641;27;21983;-44
2022/03/06 09:22:05;;;;;;;;;;;20.10;19.80;;;;;;5148127;27;19927;-47
2022/03/06 09:24:31;;;;;;;;;;;20.80;19.10;;;;;;5129660;27;20314;-46
2022/03/06 09:26:57;;;;;;;;;;;21.20;18.70;;;;;;5153197;27;19969;-50
2022/03/06 09:29:23;;;;;;;;;;;20.20;19.50;;;;;;5147990;27;19927;-45
2022/03/06 09:31:48;;;;;;;;;;;19.80;20.00;;;;;;5133165;27;19923;-50
2022/03/06 09:34:14;;;;;;;;;;;20.70;19.20;;;;;;5127174;27;20378;-47
2022/03/06 09:36:40;;;;;;;;;;;21.10;18.80;;;;;;5147609;27;19923;-48
2022/03/06 09:39:06;;;;;;;;;;;20.40;19.20;;;;;;5153169;27;20306;-46
2022/03/06 09:41:32;;;;;;;;;;;19.80;19.90;;;;;;5147732;27;19923;-47
2022/03/06 09:43:57;;;;;;;;;;;20.70;19.00;;;;;;5147598;27;20063;-46
2022/03/06 09:46:24;;;;;;;;;;;21.20;18.60;;;;;;5153227;27;19975;-48
2022/03/06 09:48:50;;;;;;;;;;;20.40;19.00;;;;;;5112263;27;19975;-46
2022/03/06 09:51:15;;;;;;;;;;;19.80;19.60;;;;;;5146672;27;20021;-53
2022/03/06 09:53:41;;;;;;;;;;;20.70;18.80;;;;;;5149287;27;19982;-46
2022/03/06 09:56:07;;;;;;;;;;;21.10;18.40;;;;;;5147432;27;19933;-46
2022/03/06 09:58:33;;;;;;;;;;;20.70;18.70;;;;;;5149564;27;19927;-45
2022/03/06 10:00:59;;;;;;;;;;;19.60;19.70;;;;;;5144171;27;20062;-50
2022/03/06 10:03:24;;;;;;;;;;;20.60;18.80;;;;;;5144285;27;19927;-46
2022/03/06 10:05:50;;;;;;;;;;;21.10;18.40;;;;;;5149711;27;19923;-46
2022/03/06 10:08:16;;;;;;;;;;;20.80;18.40;;;;;;5144157;27;20427;-46
2022/03/06 10:10:42;;;;;;;;;;;19.30;19.70;;;;;;5121326;27;19927;-46
2022/03/06 10:13:17;;;;;;;;;;;20.50;18.70;;;;;;5148555;27;20370;-46
2022/03/06 10:15:59;;;;;;;;;;;21.00;18.20;;;;;;5143883;27;20039;-50
2022/03/06 10:18:24;;;;;;;;;;;21.10;18.00;;;;;;5144522;27;19933;-57
2022/03/06 10:20:50;;;;;;;;;;;19.30;19.40;;;;;;5149348;27;19927;-47
2022/03/06 10:23:23;;;;;;;;;;;20.50;18.50;;;;;;5143659;27;19938;-50
2022/03/06 10:26:05;;;;;;;;;;;21.00;18.00;;;;;;5130445;27;20018;-51
2022/03/06 10:28:33;;;;;;;;;;;20.80;17.90;;;;;;5144834;27;19931;-53
2022/03/06 10:31:02;;;;;;;;;;;19.60;18.80;;;;;;5123240;27;20401;-47
2022/03/06 10:33:30;;;;;;;;;;;20.60;17.90;;;;;;5149116;27;20457;-47
2022/03/06 10:35:58;;;;;;;;;;;21.10;17.60;;;;;;5143487;27;19923;-51
2022/03/06 10:38:33;;;;;;;;;;;20.90;17.60;;;;;;5143560;27;19934;-48
2022/03/06 10:41:03;;;;;;;;;;;19.50;18.80;;;;;;5148925;27;19923;-48
2022/03/06 10:43:31;;;;;;;;;;;20.50;18.00;;;;;;5123739;27;20978;-47
2022/03/06 10:46:10;;;;;;;;;;;21.10;17.60;;;;;;5143513;27;19934;-53
2022/03/06 10:48:37;;;;;;;;;;;21.00;17.40;;;;;;5126025;27;19923;-51
2022/03/06 10:51:03;;;;;;;;;;;19.50;18.50;;;;;;5142819;27;19970;-49
2022/03/06 10:53:29;;;;;;;;;;;20.60;17.70;;;;;;5143255;27;20220;-49
2022/03/06 10:55:55;;;;;;;;;;;21.00;17.30;;;;;;5148783;27;19948;-50
2022/03/06 10:58:21;;;;;;;;;;;20.90;17.40;;;;;;5143225;27;19929;-48
2022/03/06 11:00:47;;;;;;;;;;;19.40;18.70;;;;;;5148520;27;19923;-54
2022/03/06 11:03:13;;;;;;;;;;;20.50;17.80;;;;;;5143357;27;19927;-48
2022/03/06 11:05:43;;;;;;;;;;;21.00;17.40;;;;;;5121848;27;19933;-56
2022/03/06 11:08:15;;;;;;;;;;;21.00;17.30;;;;;;5146431;27;19927;-47
2022/03/06 11:10:41;;;;;;;;;;;19.50;18.50;;;;;;5142794;27;19978;-53
2022/03/06 11:13:07;;;;;;;;;;;20.50;17.60;;;;;;5142901;27;19945;-49
2022/03/06 11:15:33;;;;;;;;;;;21.10;17.20;;;;;;5148397;27;20018;-49
2022/03/06 11:18:01;;;;;;;;;;;20.90;17.20;;;;;;5122988;27;19924;-48
2022/03/06 11:20:28;;;;;;;;;;;19.70;18.10;;;;;;5142804;27;19927;-49
2022/03/06 11:23:14;;;;;;;;;;;20.70;17.40;;;;;;5148147;27;20154;-49
2022/03/06 11:25:56;;;;;;;;;;;21.10;17.00;;;;;;5138051;27;20362;-51
2022/03/06 11:28:31;;;;;;;;;;;19.60;17.90;;;;;;5142516;27;19943;-48
2022/03/06 11:30:58;;;;;;;;;;;20.20;17.50;;;;;;5148122;27;20370;-48
2022/03/06 11:33:24;;;;;;;;;;;20.80;17.00;;;;;;5142728;27;19923;-48
2022/03/06 11:35:51;;;;;;;;;;;21.30;16.70;;;;;;5123780;27;20336;-58
2022/03/06 11:38:20;;;;;;;;;;;20.00;17.40;;;;;;5147859;27;19927;-50
2022/03/06 11:40:50;;;;;;;;;;;20.00;17.50;;;;;;5142694;27;19930;-50
2022/03/06 11:43:29;;;;;;;;;;;20.80;16.90;;;;;;5140786;27;19923;-56
2022/03/06 11:45:57;;;;;;;;;;;21.20;16.60;;;;;;5144449;27;19929;-50
2022/03/06 11:48:27;;;;;;;;;;;19.40;18.00;;;;;;5142394;27;20374;-47
2022/03/06 11:51:12;;;;;;;;;;;20.40;17.20;;;;;;5129264;27;19927;-51
2022/03/06 11:53:54;;;;;;;;;;;21.00;16.80;;;;;;5144337;27;19934;-53
2022/03/06 11:59:01;;;;;;;;;;;19.80;17.80;;;;;;5145446;27;19927;-57
2022/03/06 12:01:27;;;;;;;;;;;20.80;17.00;;;;;;5142978;27;19978;-48
2022/03/06 12:03:54;;;;;;;;;;;21.30;16.60;;;;;;5140832;27;19947;-55
2022/03/06 12:06:19;;;;;;;;;;;20.00;17.40;;;;;;5147636;27;19927;-49
2022/03/06 12:08:46;;;;;;;;;;;20.10;17.50;;;;;;5121297;27;19985;-49
2022/03/06 12:11:12;;;;;;;;;;;20.80;16.80;;;;;;5141869;27;19927;-50
2022/03/06 12:13:38;;;;;;;;;;;21.20;16.50;;;;;;5147425;27;20042;-53
2022/03/06 12:16:05;;;;;;;;;;;19.40;17.80;;;;;;5142220;27;19937;-50
2022/03/06 12:18:31;;;;;;;;;;;20.30;17.20;;;;;;5141759;27;20019;-49
2022/03/06 12:20:57;;;;;;;;;;;20.90;16.70;;;;;;5141865;27;19932;-49
2022/03/06 12:23:24;;;;;;;;;;;21.10;16.50;;;;;;5105542;27;19930;-51
2022/03/06 12:25:50;;;;;;;;;;;19.60;17.70;;;;;;5147453;27;19923;-51
2022/03/06 12:28:16;;;;;;;;;;;20.40;17.00;;;;;;5141847;27;19923;-52
2022/03/06 12:30:42;;;;;;;;;;;21.00;16.60;;;;;;5141964;27;19923;-55
2022/03/06 12:33:27;;;;;;;;;;;21.00;16.50;;;;;;5147253;27;19934;-49
2022/03/06 12:36:11;;;;;;;;;;;19.60;17.60;;;;;;5141847;27;19933;-53
2022/03/06 12:38:37;;;;;;;;;;;20.60;16.70;;;;;;5138445;27;20334;-51
2022/03/06 12:41:03;;;;;;;;;;;21.20;16.30;;;;;;5145600;27;19930;-51
2022/03/06 12:43:30;;;;;;;;;;;20.30;16.80;;;;;;5141787;27;19938;-51
2022/03/06 12:45:56;;;;;;;;;;;19.90;17.30;;;;;;5141704;27;20022;-54
2022/03/06 12:48:22;;;;;;;;;;;20.80;16.60;;;;;;5146570;27;21395;-52
2022/03/06 12:50:48;;;;;;;;;;;21.30;16.20;;;;;;5141730;27;19930;-52
2022/03/06 12:53:14;;;;;;;;;;;20.00;17.00;;;;;;5142781;27;19923;-53
2022/03/06 12:55:40;;;;;;;;;;;20.00;17.10;;;;;;5145980;27;20279;-52
2022/03/06 12:58:06;;;;;;;;;;;20.80;16.50;;;;;;5137319;27;19930;-52
2022/03/06 13:00:32;;;;;;;;;;;21.30;16.20;;;;;;5146143;27;19931;-50
2022/03/06 13:03:05;;;;;;;;;;;19.70;17.20;;;;;;5141110;27;19926;-49
2022/03/06 13:05:34;;;;;;;;;;;20.30;16.70;;;;;;5141113;27;19923;-49
2022/03/06 13:08:00;;;;;;;;;;;21.00;16.20;;;;;;5146788;27;20026;-50
2022/03/06 13:10:26;;;;;;;;;;;21.10;16.10;;;;;;5141565;27;19923;-47
2022/03/06 13:12:52;;;;;;;;;;;19.40;17.30;;;;;;5141348;27;19975;-49
2022/03/06 13:15:18;;;;;;;;;;;20.30;16.60;;;;;;5144479;27;20374;-56
2022/03/06 13:17:45;;;;;;;;;;;21.00;16.10;;;;;;5138493;27;20033;-49
2022/03/06 13:20:11;;;;;;;;;;;21.30;15.90;;;;;;5146420;27;19972;-52
2022/03/06 13:22:37;;;;;;;;;;;19.50;17.20;;;;;;5141893;27;19931;-53
2022/03/06 13:25:04;;;;;;;;;;;20.50;16.50;;;;;;5141075;27;19931;-54
2022/03/06 13:27:30;;;;;;;;;;;21.00;16.10;;;;;;5146293;27;19923;-51
2022/03/06 13:30:16;;;;;;;;;;;21.10;16.00;;;;;;5121292;27;20455;-50
2022/03/06 13:32:49;;;;;;;;;;;19.50;17.30;;;;;;5143341;27;19945;-48
2022/03/06 13:35:28;;;;;;;;;;;20.70;16.30;;;;;;5145902;27;19934;-48
2022/03/06 13:37:55;;;;;;;;;;;21.20;16.00;;;;;;5143808;27;19923;-53
2022/03/06 13:40:22;;;;;;;;;;;20.70;16.30;;;;;;5144532;27;19979;-50
2022/03/06 13:42:50;;;;;;;;;;;19.60;17.30;;;;;;5149673;27;19923;-49
2022/03/06 13:45:16;;;;;;;;;;;20.70;16.50;;;;;;5124668;27;19927;-49
2022/03/06 13:47:44;;;;;;;;;;;21.20;16.10;;;;;;5144409;27;20167;-47
2022/03/06 13:50:09;;;;;;;;;;;20.10;16.80;;;;;;5149761;27;19926;-48
2022/03/06 13:52:36;;;;;;;;;;;20.10;17.00;;;;;;5141220;27;19930;-49
2022/03/06 13:55:06;;;;;;;;;;;20.80;16.30;;;;;;5147363;27;19927;-55
2022/03/06 13:57:31;;;;;;;;;;;21.30;16.10;;;;;;5127802;27;20386;-49
2022/03/06 13:59:57;;;;;;;;;;;20.10;16.80;;;;;;5144122;27;19966;-47
2022/03/06 14:02:24;;;;;;;;;;;19.90;17.10;;;;;;5149369;27;19927;-49
2022/03/06 14:04:50;;;;;;;;;;;20.80;16.50;;;;;;5143918;27;19923;-50
2022/03/06 14:07:19;;;;;;;;;;;21.20;16.20;;;;;;5144191;27;19972;-48
2022/03/06 14:09:45;;;;;;;;;;;19.90;17.10;;;;;;5114001;27;19923;-47
2022/03/06 14:12:12;;;;;;;;;;;20.30;16.90;;;;;;5139670;27;19933;-50
2022/03/06 14:14:42;;;;;;;;;;;20.90;16.40;;;;;;5143293;27;20369;-52